createdAt,value
2019-05-26T00:01:12.919Z,77.52
2019-05-26T00:03:19.393Z,79.04
2019-05-26T00:05:26.751Z,79.40
2019-05-26T00:07:33.125Z,78.31
2019-05-26T00:09:39.526Z,79.13
2019-05-26T00:11:46.470Z,78.32
2019-05-26T00:13:54.270Z,79.01
2019-05-26T00:16:00.850Z,78.71
2019-05-26T00:18:07.200Z,79.15
2019-05-26T00:20:14.669Z,79.99
2019-05-26T00:22:23.513Z,79.79
2019-05-26T00:24:29.865Z,79.20
2019-05-26T00:26:36.092Z,78.74
2019-05-26T00:28:42.790Z,77.95
2019-05-26T00:30:49.190Z,79.10
2019-05-26T00:32:56.128Z,76.96
2019-05-26T00:35:02.400Z,76.83
2019-05-26T00:37:08.957Z,78.65
2019-05-26T00:39:15.328Z,77.95
2019-05-26T00:41:21.765Z,77.97
2019-05-26T00:43:32.346Z,79.14
2019-05-26T00:45:39.029Z,79.20
2019-05-26T00:47:45.786Z,79.35
2019-05-26T00:49:52.165Z,78.64
2019-05-26T00:51:58.529Z,80.27
2019-05-26T00:54:05.072Z,78.55
2019-05-26T00:56:11.959Z,79.95
2019-05-26T00:58:18.215Z,77.28
2019-05-26T01:00:44.839Z,76.31
2019-05-26T01:02:51.132Z,76.73
2019-05-26T01:04:57.660Z,76.11
2019-05-26T01:07:05.156Z,76.41
2019-05-26T01:09:11.850Z,75.91
2019-05-26T01:11:19.450Z,75.92
2019-05-26T01:13:25.720Z,77.02
2019-05-26T01:15:32.884Z,76.65
2019-05-26T01:17:39.344Z,76.23
2019-05-26T01:19:45.702Z,75.89
2019-05-26T01:21:53.791Z,76.96
2019-05-26T01:24:00.475Z,76.83
2019-05-26T01:26:08.401Z,75.65
2019-05-26T01:28:14.614Z,75.50
2019-05-26T01:30:24.803Z,75.22
2019-05-26T01:32:31.256Z,76.58
2019-05-26T01:34:37.519Z,74.59
2019-05-26T01:36:43.979Z,74.64
2019-05-26T01:38:52.244Z,76.13
2019-05-26T01:40:58.557Z,75.58
2019-05-26T01:43:05.102Z,75.04
2019-05-26T01:45:12.116Z,74.73
2019-05-26T01:47:18.463Z,75.00
2019-05-26T01:49:24.717Z,75.79
2019-05-26T01:51:31.092Z,75.63
2019-05-26T01:53:37.646Z,77.10
2019-05-26T01:55:44.013Z,74.29
2019-05-26T01:57:50.382Z,75.19
2019-05-26T01:59:58.436Z,73.98
2019-05-26T02:02:05.269Z,73.47
2019-05-26T02:04:13.046Z,74.41
2019-05-26T02:06:19.820Z,74.26
2019-05-26T02:08:38.440Z,74.57
2019-05-26T02:10:34.082Z,74.41
2019-05-26T02:12:40.439Z,75.32
2019-05-26T02:14:46.906Z,75.39
2019-05-26T02:16:53.154Z,74.22
2019-05-26T02:18:59.528Z,73.88
2019-05-26T02:21:06.074Z,74.24
2019-05-26T02:23:13.271Z,74.03
2019-05-26T02:25:20.935Z,74.18
2019-05-26T02:27:27.346Z,74.88
2019-05-26T02:29:33.610Z,74.47
2019-05-26T02:31:39.867Z,74.04
2019-05-26T02:33:46.449Z,73.83
2019-05-26T02:35:52.715Z,73.60
2019-05-26T02:37:59.132Z,73.31
2019-05-26T02:40:08.774Z,73.89
2019-05-26T02:42:19.779Z,73.72
2019-05-26T02:44:26.951Z,73.76
2019-05-26T02:46:34.035Z,74.00
2019-05-26T02:48:40.414Z,74.59
2019-05-26T02:50:46.751Z,74.12
2019-05-26T02:52:53.290Z,73.73
2019-05-26T02:54:59.587Z,73.79
2019-05-26T02:57:05.951Z,73.82
2019-05-26T02:59:12.533Z,73.28
2019-05-26T03:01:19.877Z,73.17
2019-05-26T03:03:26.778Z,73.83
2019-05-26T03:05:34.048Z,73.30
2019-05-26T03:07:43.952Z,73.36
2019-05-26T03:09:51.906Z,73.81
2019-05-26T03:12:00.704Z,73.76
2019-05-26T03:14:07.601Z,72.70
2019-05-26T03:16:18.546Z,73.01
2019-05-26T03:18:24.807Z,73.10
2019-05-26T03:20:35.614Z,72.64
2019-05-26T03:22:47.881Z,72.31
2019-05-26T03:24:55.168Z,72.08
2019-05-26T03:27:01.980Z,72.29
2019-05-26T03:29:08.296Z,72.66
2019-05-26T03:31:14.799Z,72.35
2019-05-26T03:33:22.261Z,72.70
2019-05-26T03:35:29.653Z,73.35
2019-05-26T03:37:35.902Z,73.38
2019-05-26T03:39:45.965Z,72.34
2019-05-26T03:41:51.279Z,72.07
2019-05-26T03:43:57.555Z,72.88
2019-05-26T03:46:20.407Z,72.34
2019-05-26T03:48:27.273Z,72.66
2019-05-26T03:50:33.564Z,72.57
2019-05-26T03:52:39.895Z,72.29
2019-05-26T03:54:46.175Z,73.38
2019-05-26T03:56:53.251Z,72.42
2019-05-26T03:58:59.801Z,71.36
2019-05-26T04:01:06.603Z,73.63
2019-05-26T04:03:12.937Z,72.17
2019-05-26T04:05:19.217Z,71.42
2019-05-26T04:07:29.071Z,72.19
2019-05-26T04:09:38.496Z,70.47
2019-05-26T04:11:44.728Z,72.33
2019-05-26T04:13:51.940Z,71.41
2019-05-26T04:15:58.404Z,71.66
2019-05-26T04:18:04.964Z,70.85
2019-05-26T04:20:11.492Z,70.33
2019-05-26T04:22:17.776Z,70.23
2019-05-26T04:24:24.352Z,71.23
2019-05-26T04:26:30.834Z,70.02
2019-05-26T04:34:56.081Z,70.05
2019-05-26T04:37:02.333Z,69.74
2019-05-26T04:39:09.203Z,69.17
2019-05-26T04:41:15.468Z,70.42
2019-05-26T04:43:21.811Z,68.36
2019-05-26T04:47:33.421Z,67.98
2019-05-26T04:49:40.856Z,68.16
2019-05-26T04:51:47.166Z,68.80
2019-05-26T04:53:53.528Z,68.78
2019-05-26T04:56:00.097Z,68.50
2019-05-26T04:58:07.894Z,68.02
2019-05-26T05:00:16.001Z,68.16
2019-05-26T05:02:22.265Z,68.33
2019-05-26T05:04:28.728Z,69.56
2019-05-26T05:06:35.085Z,67.28
2019-05-26T05:08:41.564Z,67.25
2019-05-26T05:10:47.916Z,67.26
2019-05-26T05:12:54.373Z,66.91
2019-05-26T05:15:02.478Z,67.07
2019-05-26T05:17:09.265Z,66.58
2019-05-26T05:19:15.612Z,66.49
2019-05-26T05:21:22.181Z,66.57
2019-05-26T05:23:28.544Z,66.08
2019-05-26T05:25:36.448Z,66.13
2019-05-26T05:27:42.895Z,65.16
2019-05-26T05:29:49.291Z,65.20
2019-05-26T05:31:55.541Z,66.84
2019-05-26T05:34:01.781Z,65.44
2019-05-26T05:36:08.058Z,65.73
2019-05-26T05:38:15.332Z,64.79
2019-05-26T05:40:22.105Z,65.00
2019-05-26T05:42:28.342Z,64.64
2019-05-26T05:44:34.719Z,65.35
2019-05-26T05:46:40.984Z,63.22
2019-05-26T05:48:47.249Z,63.23
2019-05-26T05:50:53.500Z,62.92
2019-05-26T05:52:59.784Z,63.25
2019-05-26T05:55:08.385Z,63.33
2019-05-26T05:57:14.636Z,63.60
2019-05-26T05:59:21.814Z,63.69
2019-05-26T06:01:28.095Z,62.77
2019-05-26T06:03:34.548Z,62.68
2019-05-26T06:05:40.915Z,62.15
2019-05-26T06:07:48.740Z,61.78
2019-05-26T06:09:55.215Z,60.94
2019-05-26T06:12:01.537Z,60.24
2019-05-26T06:14:07.794Z,60.87
2019-05-26T06:16:14.245Z,60.52
2019-05-26T06:18:20.837Z,60.94
2019-05-26T06:20:27.090Z,60.74
2019-05-26T06:22:33.363Z,61.07
2019-05-26T06:24:39.919Z,60.91
2019-05-26T06:26:46.260Z,61.79
2019-05-26T06:28:52.876Z,61.08
2019-05-26T06:30:59.212Z,60.18
2019-05-26T06:33:05.683Z,60.03
2019-05-26T06:35:12.995Z,58.89
2019-05-26T06:37:19.230Z,59.28
2019-05-26T06:39:25.887Z,59.79
2019-05-26T06:41:34.010Z,58.84
2019-05-26T06:43:40.693Z,58.83
2019-05-26T06:45:47.133Z,59.57
2019-05-26T06:47:54.937Z,58.59
2019-05-26T06:50:02.859Z,58.20
2019-05-26T06:52:09.385Z,57.62
2019-05-26T06:54:15.787Z,57.66
2019-05-26T06:56:22.125Z,58.13
2019-05-26T06:58:29.810Z,56.75
2019-05-26T07:00:36.205Z,57.30
2019-05-26T07:02:42.939Z,56.81
2019-05-26T07:04:49.525Z,56.21
2019-05-26T07:06:56.483Z,57.55
2019-05-26T07:09:02.957Z,57.07
2019-05-26T07:11:09.514Z,56.76
2019-05-26T07:13:15.906Z,56.34
2019-05-26T07:15:22.460Z,56.52
2019-05-26T07:17:29.331Z,57.09
2019-05-26T07:19:35.911Z,55.39
2019-05-26T07:21:42.580Z,56.30
2019-05-26T07:23:48.934Z,56.00
2019-05-26T07:25:55.195Z,54.98
2019-05-26T07:28:01.446Z,56.21
2019-05-26T07:30:09.626Z,54.97
2019-05-26T07:32:15.929Z,54.18
2019-05-26T07:34:22.301Z,54.07
2019-05-26T07:36:28.670Z,54.45
2019-05-26T07:38:35.224Z,54.92
2019-05-26T07:40:41.583Z,55.46
2019-05-26T07:42:48.958Z,54.09
2019-05-26T07:44:55.228Z,51.61
2019-05-26T07:47:01.505Z,54.19
2019-05-26T07:49:08.171Z,54.62
2019-05-26T07:51:14.627Z,53.33
2019-05-26T07:53:21.186Z,54.54
2019-05-26T07:55:27.435Z,52.61
2019-05-26T07:57:33.800Z,53.48
2019-05-26T07:59:40.285Z,51.57
2019-05-26T08:01:46.647Z,51.66
2019-05-26T08:03:53.589Z,51.46
2019-05-26T08:05:59.858Z,51.17
2019-05-26T08:08:12.598Z,51.77
2019-05-26T08:10:15.055Z,51.51
2019-05-26T08:12:26.164Z,51.24
2019-05-26T08:14:29.545Z,49.98
2019-05-26T08:16:35.793Z,50.67
2019-05-26T08:18:42.766Z,50.06
2019-05-26T08:20:49.021Z,50.10
2019-05-26T08:22:56.822Z,48.62
2019-05-26T08:25:03.375Z,49.02
2019-05-26T08:27:09.836Z,49.40
2019-05-26T08:29:17.635Z,49.31
2019-05-26T08:31:24.743Z,49.38
2019-05-26T08:33:31.195Z,50.12
2019-05-26T08:35:38.805Z,49.55
2019-05-26T08:37:46.591Z,49.35
2019-05-26T08:39:53.239Z,49.13
2019-05-26T08:41:59.819Z,49.76
2019-05-26T08:44:07.408Z,49.81
2019-05-26T08:46:15.505Z,50.56
2019-05-26T08:48:21.794Z,51.41
2019-05-26T08:50:28.220Z,51.03
2019-05-26T08:52:34.488Z,50.95
2019-05-26T08:54:40.849Z,52.37
2019-05-26T08:56:47.225Z,51.26
2019-05-26T08:58:53.581Z,51.19
2019-05-26T09:00:59.945Z,50.26
2019-05-26T09:03:06.329Z,50.58
2019-05-26T09:05:13.407Z,49.74
2019-05-26T09:07:21.285Z,49.79
2019-05-26T09:09:27.564Z,49.79
2019-05-26T09:11:38.028Z,49.18
2019-05-26T09:13:43.781Z,50.48
2019-05-26T09:15:50.315Z,50.49
2019-05-26T09:18:00.874Z,49.61
2019-05-26T09:20:11.753Z,49.33
2019-05-26T09:22:18.730Z,49.20
2019-05-26T09:24:25.141Z,50.42
2019-05-26T09:26:31.446Z,50.39
2019-05-26T09:28:39.373Z,49.56
2019-05-26T09:30:47.274Z,49.17
2019-05-26T09:32:55.340Z,48.80
2019-05-26T09:35:04.016Z,49.46
2019-05-26T09:37:10.400Z,49.79
2019-05-26T09:39:16.737Z,49.98
2019-05-26T09:41:24.495Z,48.92
2019-05-26T09:43:32.323Z,48.60
2019-05-26T09:45:40.120Z,47.75
2019-05-26T09:47:46.671Z,48.31
2019-05-26T09:49:53.733Z,47.97
2019-05-26T09:52:01.929Z,47.98
2019-05-26T09:54:12.520Z,47.50
2019-05-26T09:56:17.945Z,48.51
2019-05-26T09:58:24.299Z,48.16
2019-05-26T10:00:30.991Z,48.31
2019-05-26T10:02:37.480Z,47.72
2019-05-26T10:04:46.439Z,46.79
2019-05-26T10:06:54.363Z,47.69
2019-05-26T10:09:02.181Z,49.23
2019-05-26T10:11:08.923Z,47.92
2019-05-26T10:13:30.790Z,46.45
2019-05-26T10:15:26.267Z,47.18
2019-05-26T10:17:33.749Z,46.85
2019-05-26T10:19:40.003Z,46.74
2019-05-26T10:21:46.561Z,46.20
2019-05-26T10:23:53.352Z,45.88
2019-05-26T10:25:59.705Z,45.75
2019-05-26T10:28:05.980Z,46.04
2019-05-26T10:30:15.309Z,46.96
2019-05-26T10:32:21.867Z,47.33
2019-05-26T10:34:28.260Z,46.85
2019-05-26T10:36:34.507Z,46.22
2019-05-26T10:38:42.802Z,45.97
2019-05-26T10:40:49.064Z,45.99
2019-05-26T10:42:55.324Z,45.58
2019-05-26T10:45:02.190Z,46.08
2019-05-26T10:47:08.473Z,46.25
2019-05-26T10:49:14.744Z,45.41
2019-05-26T10:51:21.173Z,45.48
2019-05-26T10:53:28.889Z,45.20
2019-05-26T10:55:35.542Z,45.71
2019-05-26T10:57:42.024Z,44.45
2019-05-26T10:59:48.265Z,44.18
2019-05-26T11:01:55.254Z,44.17
2019-05-26T11:04:01.602Z,43.62
2019-05-26T11:06:08.182Z,43.18
2019-05-26T11:08:14.418Z,44.31
2019-05-26T11:10:21.543Z,45.23
2019-05-26T11:12:28.184Z,44.59
2019-05-26T11:14:34.449Z,43.51
2019-05-26T11:16:40.707Z,44.02
2019-05-26T11:18:47.291Z,44.14
2019-05-26T11:20:53.659Z,42.72
2019-05-26T11:23:00.247Z,43.45
2019-05-26T11:25:10.891Z,42.73
2019-05-26T11:27:19.931Z,42.55
2019-05-26T11:29:26.440Z,43.98
2019-05-26T11:31:32.924Z,43.21
2019-05-26T11:33:39.746Z,43.60
2019-05-26T11:35:46.265Z,43.30
2019-05-26T11:37:52.522Z,42.77
2019-05-26T11:40:00.328Z,42.74
2019-05-26T11:42:13.125Z,43.26
2019-05-26T11:44:18.319Z,44.56
2019-05-26T11:46:23.500Z,43.48
2019-05-26T11:48:29.770Z,43.28
2019-05-26T11:50:36.153Z,42.87
2019-05-26T11:52:42.413Z,42.33
2019-05-26T11:54:48.986Z,42.57
2019-05-26T11:56:55.234Z,42.90
2019-05-26T11:59:01.781Z,43.23
2019-05-26T12:01:08.139Z,42.98
2019-05-26T12:03:14.395Z,43.20
2019-05-26T12:05:20.864Z,42.89
2019-05-26T12:07:27.139Z,43.00
2019-05-26T12:09:35.070Z,42.63
2019-05-26T12:11:41.593Z,43.69
2019-05-26T12:13:47.980Z,43.62
2019-05-26T12:15:54.229Z,41.73
2019-05-26T12:18:00.904Z,42.27
2019-05-26T12:20:08.900Z,42.96
2019-05-26T12:22:15.380Z,42.04
2019-05-26T12:24:33.824Z,42.21
2019-05-26T12:26:40.080Z,43.51
2019-05-26T12:28:47.455Z,43.33
2019-05-26T12:30:55.161Z,43.56
2019-05-26T12:33:02.343Z,43.18
2019-05-26T12:35:10.523Z,44.67
2019-05-26T12:37:16.890Z,43.80
2019-05-26T12:39:23.142Z,41.73
2019-05-26T12:41:37.360Z,42.54
2019-05-26T12:43:45.725Z,42.78
2019-05-26T12:45:52.426Z,43.47
2019-05-26T12:47:58.950Z,43.15
2019-05-26T12:50:09.625Z,43.37
2019-05-26T12:52:16.193Z,41.92
2019-05-26T12:54:22.534Z,41.66
2019-05-26T12:56:28.894Z,41.48
2019-05-26T12:58:36.292Z,42.37
2019-05-26T13:00:48.704Z,42.92
2019-05-26T13:02:52.340Z,43.03
2019-05-26T13:04:59.211Z,43.50
2019-05-26T13:07:06.049Z,43.57
2019-05-26T13:09:13.945Z,43.21
2019-05-26T13:11:22.775Z,43.17
2019-05-26T13:13:28.624Z,42.18
2019-05-26T13:15:35.179Z,42.25
2019-05-26T13:17:42.569Z,42.77
2019-05-26T13:19:48.848Z,42.05
2019-05-26T13:21:55.919Z,42.14
2019-05-26T13:24:02.163Z,41.74
2019-05-26T13:26:08.432Z,41.92
2019-05-26T13:28:15.081Z,42.11
2019-05-26T13:30:24.832Z,42.93
2019-05-26T13:32:31.404Z,43.30
2019-05-26T13:34:38.692Z,42.55
2019-05-26T13:36:45.070Z,42.76
2019-05-26T13:38:51.301Z,42.08
2019-05-26T13:40:57.580Z,42.23
2019-05-26T13:43:04.128Z,42.45
2019-05-26T13:45:21.688Z,42.75
2019-05-26T13:47:26.247Z,42.10
2019-05-26T13:49:29.796Z,42.12
2019-05-26T13:51:37.067Z,41.66
2019-05-26T13:53:45.065Z,42.67
2019-05-26T13:55:51.313Z,41.28
2019-05-26T13:58:00.690Z,41.10
2019-05-26T14:00:16.439Z,41.35
2019-05-26T14:02:23.014Z,40.56
2019-05-26T14:04:29.577Z,40.63
2019-05-26T14:06:36.044Z,41.59
2019-05-26T14:08:42.400Z,41.81
2019-05-26T14:10:48.670Z,41.81
2019-05-26T14:12:55.142Z,42.12
2019-05-26T14:15:02.413Z,42.07
2019-05-26T14:17:08.670Z,42.68
2019-05-26T14:19:16.383Z,42.56
2019-05-26T14:21:22.730Z,41.66
2019-05-26T14:23:28.989Z,41.62
2019-05-26T14:25:35.870Z,41.89
2019-05-26T14:27:42.151Z,42.16
2019-05-26T14:29:48.510Z,42.29
2019-05-26T14:31:55.063Z,42.26
2019-05-26T14:34:01.742Z,41.42
2019-05-26T14:36:08.704Z,41.33
2019-05-26T14:38:16.601Z,41.53
2019-05-26T14:40:22.877Z,41.63
2019-05-26T14:42:29.139Z,41.60
2019-05-26T14:44:35.501Z,41.80
2019-05-26T14:46:42.157Z,41.24
2019-05-26T14:48:48.415Z,40.94
2019-05-26T14:50:54.881Z,42.48
2019-05-26T14:53:01.349Z,42.55
2019-05-26T14:55:09.313Z,42.61
2019-05-26T14:57:16.049Z,41.55
2019-05-26T14:59:22.349Z,41.48
2019-05-26T15:01:28.857Z,41.76
2019-05-26T15:03:35.115Z,42.11
2019-05-26T15:05:41.383Z,42.04
2019-05-26T15:07:48.042Z,41.98
2019-05-26T15:09:54.719Z,42.24
2019-05-26T15:12:00.978Z,42.97
2019-05-26T15:14:08.563Z,42.87
2019-05-26T15:16:15.273Z,42.90
2019-05-26T15:18:21.604Z,43.13
2019-05-26T15:20:28.391Z,43.36
2019-05-26T15:22:34.741Z,42.78
2019-05-26T15:24:41.586Z,43.12
2019-05-26T15:26:47.970Z,42.67
2019-05-26T15:28:54.227Z,43.21
2019-05-26T15:31:00.589Z,43.40
2019-05-26T15:33:08.497Z,42.98
2019-05-26T15:35:15.365Z,43.45
2019-05-26T15:37:21.733Z,42.79
2019-05-26T15:39:28.009Z,43.03
2019-05-26T15:41:36.943Z,42.86
2019-05-26T15:43:43.173Z,42.83
2019-05-26T15:45:49.546Z,42.81
2019-05-26T15:47:55.900Z,42.78
2019-05-26T15:50:02.164Z,42.78
2019-05-26T15:52:09.961Z,42.87
2019-05-26T15:54:16.210Z,42.11
2019-05-26T15:56:22.465Z,42.17
2019-05-26T15:58:28.737Z,42.57
2019-05-26T16:00:34.995Z,42.46
2019-05-26T16:02:41.973Z,42.63
2019-05-26T16:04:49.763Z,41.57
2019-05-26T16:06:56.337Z,42.36
2019-05-26T16:09:02.702Z,41.55
2019-05-26T16:11:10.098Z,42.07
2019-05-26T16:13:16.543Z,42.28
2019-05-26T16:15:23.175Z,42.33
2019-05-26T16:17:29.573Z,42.61
2019-05-26T16:19:38.200Z,42.77
2019-05-26T16:21:44.654Z,43.31
2019-05-26T16:23:51.020Z,42.86
2019-05-26T16:25:57.299Z,43.28
2019-05-26T16:28:04.972Z,42.12
2019-05-26T16:30:12.289Z,42.54
2019-05-26T16:32:19.093Z,42.75
2019-05-26T16:34:25.600Z,42.70
2019-05-26T16:36:31.852Z,42.90
2019-05-26T16:38:38.252Z,42.33
2019-05-26T16:40:45.131Z,44.07
2019-05-26T16:42:51.484Z,42.84
2019-05-26T16:44:58.135Z,42.52
2019-05-26T16:47:04.584Z,42.82
2019-05-26T16:49:10.864Z,43.72
2019-05-26T16:51:17.517Z,43.53
2019-05-26T16:53:23.926Z,43.46
2019-05-26T16:55:30.145Z,43.08
2019-05-26T16:57:36.722Z,43.28
2019-05-26T16:59:43.079Z,43.23
2019-05-26T17:01:49.524Z,43.19
2019-05-26T17:03:56.314Z,43.50
2019-05-26T17:06:08.200Z,44.41
2019-05-26T17:08:14.095Z,44.04
2019-05-26T17:10:21.084Z,44.15
2019-05-26T17:12:27.618Z,44.29
2019-05-26T17:14:34.066Z,44.50
2019-05-26T17:16:40.555Z,44.40
2019-05-26T17:18:46.947Z,43.96
2019-05-26T17:20:53.567Z,43.76
2019-05-26T17:23:00.335Z,44.11
2019-05-26T17:25:08.446Z,44.58
2019-05-26T17:27:14.887Z,44.85
2019-05-26T17:29:21.387Z,44.78
2019-05-26T17:31:27.875Z,45.03
2019-05-26T17:33:34.921Z,45.46
2019-05-26T17:35:41.300Z,45.58
2019-05-26T17:37:47.760Z,45.43
2019-05-26T17:39:54.017Z,44.59
2019-05-26T17:42:00.587Z,45.25
2019-05-26T17:44:07.869Z,45.00
2019-05-26T17:46:15.274Z,45.45
2019-05-26T17:48:21.836Z,45.27
2019-05-26T17:50:28.205Z,46.09
2019-05-26T17:52:34.577Z,45.93
2019-05-26T17:54:41.021Z,45.68
2019-05-26T17:56:47.374Z,45.71
2019-05-26T17:58:54.971Z,45.46
2019-05-26T18:01:01.333Z,45.67
2019-05-26T18:03:07.708Z,45.94
2019-05-26T18:05:18.294Z,46.00
2019-05-26T18:07:25.726Z,46.25
2019-05-26T18:09:43.709Z,46.26
2019-05-26T18:11:43.222Z,46.69
2019-05-26T18:13:49.556Z,46.50
2019-05-26T18:15:57.637Z,46.75
2019-05-26T18:18:05.441Z,46.97
2019-05-26T18:20:15.700Z,47.04
2019-05-26T18:22:22.324Z,47.43
2019-05-26T18:24:30.379Z,47.32
2019-05-26T18:26:37.031Z,47.72
2019-05-26T18:28:43.770Z,47.59
2019-05-26T18:30:50.072Z,47.97
2019-05-26T18:32:58.165Z,48.17
2019-05-26T18:35:06.807Z,48.81
2019-05-26T18:37:13.667Z,48.75
2019-05-26T18:39:20.644Z,49.02
2019-05-26T18:41:27.118Z,49.42
2019-05-26T18:43:33.936Z,49.49
2019-05-26T18:45:46.115Z,50.10
2019-05-26T18:48:03.084Z,50.23
2019-05-26T18:50:02.709Z,50.60
2019-05-26T18:52:11.452Z,50.87
2019-05-26T18:54:19.453Z,51.27
2019-05-26T18:56:27.652Z,51.38
2019-05-26T18:58:34.518Z,51.61
2019-05-26T19:00:41.070Z,51.66
2019-05-26T19:02:47.747Z,51.71
2019-05-26T19:04:54.476Z,51.89
2019-05-26T19:07:00.889Z,52.12
2019-05-26T19:09:10.720Z,52.13
2019-05-26T19:11:17.336Z,52.28
2019-05-26T19:13:25.377Z,52.46
2019-05-26T19:15:31.748Z,52.64
2019-05-26T19:17:40.091Z,52.56
2019-05-26T19:19:47.249Z,52.76
2019-05-26T19:21:53.960Z,52.45
2019-05-26T19:24:00.795Z,52.58
2019-05-26T19:26:07.765Z,52.73
2019-05-26T19:28:17.632Z,53.01
2019-05-26T19:30:24.629Z,53.03
2019-05-26T19:32:31.436Z,53.17
2019-05-26T19:34:40.377Z,53.13
2019-05-26T19:36:48.134Z,52.93
2019-05-26T19:38:54.864Z,53.01
2019-05-26T19:41:04.284Z,53.16
2019-05-26T19:43:12.487Z,52.85
2019-05-26T19:45:19.285Z,53.04
2019-05-26T19:47:25.622Z,53.34
2019-05-26T19:49:33.824Z,53.48
2019-05-26T19:51:41.935Z,53.86
2019-05-26T19:53:48.287Z,53.84
2019-05-26T19:55:56.487Z,54.09
2019-05-26T19:58:02.996Z,54.05
2019-05-26T20:00:19.368Z,53.86
2019-05-26T20:02:25.626Z,53.78
2019-05-26T20:04:32.301Z,53.97
2019-05-26T20:06:38.782Z,53.94
2019-05-26T20:08:46.583Z,54.08
2019-05-26T20:10:53.345Z,54.04
2019-05-26T20:13:00.601Z,53.97
2019-05-26T20:15:11.082Z,53.81
2019-05-26T20:17:23.182Z,53.95
2019-05-26T20:19:29.869Z,54.33
2019-05-26T20:21:37.655Z,54.58
2019-05-26T20:23:45.739Z,54.25
2019-05-26T20:25:52.218Z,54.35
2019-05-26T20:28:00.327Z,53.87
2019-05-26T20:30:09.443Z,53.84
2019-05-26T20:32:15.931Z,54.20
2019-05-26T20:34:23.588Z,54.63
2019-05-26T20:36:30.161Z,54.84
2019-05-26T20:38:37.124Z,54.72
2019-05-26T20:40:43.838Z,54.38
2019-05-26T20:42:53.137Z,54.51
2019-05-26T20:45:00.019Z,54.83
2019-05-26T20:47:06.730Z,55.55
2019-05-26T20:49:13.043Z,55.68
2019-05-26T20:51:20.833Z,56.31
2019-05-26T20:53:28.513Z,55.69
2019-05-26T20:55:35.425Z,55.94
2019-05-26T20:57:41.783Z,55.80
2019-05-26T20:59:49.777Z,55.85
2019-05-26T21:01:56.242Z,56.05
2019-05-26T21:04:04.773Z,55.93
2019-05-26T21:06:12.755Z,56.20
2019-05-26T21:08:20.646Z,56.21
2019-05-26T21:10:27.438Z,56.23
2019-05-26T21:12:35.008Z,56.54
2019-05-26T21:14:41.278Z,56.83
2019-05-26T21:16:49.706Z,56.91
2019-05-26T21:18:56.085Z,57.10
2019-05-26T21:21:05.443Z,57.56
2019-05-26T21:23:11.851Z,57.42
2019-05-26T21:25:18.610Z,57.64
2019-05-26T21:27:24.882Z,57.77
2019-05-26T21:29:31.237Z,57.90
2019-05-26T21:31:37.935Z,58.15
2019-05-26T21:33:45.629Z,58.76
2019-05-26T21:35:51.977Z,58.61
2019-05-26T21:37:58.603Z,58.75
2019-05-26T21:40:07.778Z,58.89
2019-05-26T21:42:16.033Z,58.98
2019-05-26T21:44:24.417Z,59.22
2019-05-26T21:46:30.651Z,59.35
2019-05-26T21:48:37.098Z,59.52
2019-05-26T21:50:45.096Z,59.47
2019-05-26T21:52:51.779Z,59.64
2019-05-26T21:54:59.872Z,59.81
2019-05-26T21:57:06.123Z,60.54
2019-05-26T21:59:12.408Z,60.20
2019-05-26T22:01:18.837Z,60.58
2019-05-26T22:03:25.111Z,60.42
2019-05-26T22:05:31.914Z,60.52
2019-05-26T22:07:38.142Z,60.46
2019-05-26T22:09:44.400Z,60.69
2019-05-26T22:11:50.658Z,60.62
2019-05-26T22:13:58.361Z,60.77
2019-05-26T22:16:06.299Z,61.03
2019-05-26T22:18:14.562Z,61.24
2019-05-26T22:20:21.118Z,60.89
2019-05-26T22:22:27.402Z,60.86
2019-05-26T22:24:33.637Z,60.74
2019-05-26T22:26:40.120Z,60.85
2019-05-26T22:28:46.357Z,60.84
2019-05-26T22:30:53.027Z,60.89
2019-05-26T22:32:59.411Z,61.05
2019-05-26T22:35:09.051Z,61.46
2019-05-26T22:37:15.298Z,61.41
2019-05-26T22:39:22.068Z,61.34
2019-05-26T22:41:28.332Z,61.22
2019-05-26T22:43:34.600Z,61.24
2019-05-26T22:45:40.855Z,61.63
2019-05-26T22:47:47.107Z,62.37
2019-05-26T22:49:53.374Z,61.86
2019-05-26T22:51:59.651Z,61.92
2019-05-26T22:54:05.919Z,61.79
2019-05-26T22:56:12.266Z,61.89
2019-05-26T22:58:18.524Z,61.85
2019-05-26T23:00:25.118Z,61.86
2019-05-26T23:02:31.994Z,62.10
2019-05-26T23:04:38.320Z,62.14
2019-05-26T23:06:44.577Z,62.35
2019-05-26T23:08:50.841Z,62.33
2019-05-26T23:10:57.318Z,62.41
2019-05-26T23:13:03.583Z,62.75
2019-05-26T23:15:13.172Z,62.66
2019-05-26T23:17:21.209Z,62.57
2019-05-26T23:19:27.689Z,62.58
2019-05-26T23:21:33.943Z,62.80
2019-05-26T23:23:40.197Z,62.89
2019-05-26T23:25:46.454Z,62.91
2019-05-26T23:27:52.820Z,63.09
2019-05-26T23:30:00.429Z,63.39
2019-05-26T23:32:06.675Z,63.46
2019-05-26T23:34:12.939Z,63.49
2019-05-26T23:36:19.203Z,63.44
2019-05-26T23:38:28.522Z,63.77
2019-05-26T23:40:34.785Z,63.78
2019-05-26T23:42:41.049Z,63.84
2019-05-26T23:44:47.404Z,63.65
2019-05-26T23:46:54.469Z,63.55
2019-05-26T23:49:02.790Z,63.45
2019-05-26T23:51:09.049Z,63.46
2019-05-26T23:53:15.312Z,63.41
2019-05-26T23:55:21.672Z,63.26
2019-05-26T23:57:27.951Z,63.43
2019-05-26T23:59:34.201Z,63.33
